Sapello, NM

11:34 AM MDT on September 16, 2014 (GMT -0600)
Taos Municipal | Change Station
CLOSE
Current Station
Airport
Location: Taos,
Elevation: 7090 ft
Nearby Weather Stations

Elev 7090 ft 36.46 °N, 105.67 °W | Updated 20 days ago

Clear
Clear
72 °F
Feels Like 72 °F
N
5
Wind Variable Wind from South
Gusts 6 mph

Today
High -- | Low -- °F
--% Chance of Precip.
Yesterday
High -- | Low -- °F
Precip. -- in
6:44 AM 7:06 PM
Last Quarter, 44% visible
Pressure 30.40 in
Visibility 10.0 miles
Clouds Scattered Clouds 2200 ft
Mostly Cloudy 2900 ft
Dew Point 48 °F
Humidity 43%
Rainfall 0.16 in
Snow Depth 0 in , 2 in , 128 in
UV 3 out of 12
Pollen 5.90 out of 12
Air Quality Not available.
Flu Activity Not available.
METAR KSKX 271535Z AUTO 19005KT 10SM SCT022 BKN029 14/11 A3040 RMK AO1

More Conditions Fewer Conditions

Pressure 30.40 in
Visibility 10.0 miles
Clouds Scattered Clouds 2200 ft
Mostly Cloudy 2900 ft
Dew Point 48 °F
Humidity 43%
Rainfall 0.16 in
Snow Depth 0 in , 2 in , 128 in
UV 3 out of 12
Pollen 5.90 out of 12
Air Quality Not available.
Flu Activity Not available.
METAR KSKX 271535Z AUTO 19005KT 10SM SCT022 BKN029 14/11 A3040 RMK AO1

More Conditions Fewer Conditions

10-Day Weather Forecast

Almanac

Astronomy

Sep. 16, 2014 Rise Set
Actual Time 6:44 AM MDT 7:06 PM MDT
Civil Twilight 6:18 AM MDT 7:32 PM MDT
Nautical Twilight 5:48 AM MDT 8:02 PM MDT
Astronomical Twilight 5:18 AM MDT 8:32 PM MDT
Moon 12:04 AM MDT 2:24 PM MDT
Length of Visible Light 13h 13m
Length of Day
12h 22m
Tomorrow will be 2m 15s shorter.
Last Quarter, 44% of the Moon is Illuminated
Today
Last Quarter
Sep 24
New
Oct 1
First Quarter
Oct 8
Full
Oct 15
Last Quarter

Today's Extremes

State Highs State Lows

Community

WunderPhotos

Upload Photos

1,753,838 photos uploaded!

Nearby

Snow Depth

Station Depth Elevation
Hopewell 0 in 10000 ft
Gallegos Peak 0 in 9800 ft
Wesner Springs 2 in 11120 ft
Elk Cabin 128 in 8210 ft
Tolby 0 in 10180 ft

Earthquake Activity

City Distance Mag. Time & Date
No recent earthquake activity has been reported nearby.
Minimum magnitude displayed is 2.5.

Coastal Water Temperatures

Place Temperature
No Stations Reporting

Nearby Weather Stations